Flight Track Log - Related Links

Times and Time Zones

All times are in EDT time to prevent confusion due to time zone crossing. See the N744WD flight status page for this flight to view local times or setup timezone preferences in your user account.


Time Position Orientation Groundspeed Altitude Reporting Facility
EDT Latitude Longitude Course Direction KTS MPH feet Rate Location/Type
Wed 07:51:36 AM 29.6592 -95.2897 358° North 146 168 600  Level Houston Center
Wed 07:52:19 AM 29.6903 -95.2908 North 147 169 1,700 1,673 Climbing Houston Center
Wed 07:53:20 AM 29.7364 -95.2900 North 171 197 3,500 1,835 Climbing Houston Center
Wed 07:54:20 AM 29.7844 -95.2844 North 170 196 5,400 1,785 Climbing Houston Center
Wed 07:55:21 AM 29.8325 -95.2814 North 181 208 7,100 1,770 Climbing Houston Center
Wed 07:56:22 AM 29.8806 -95.2781 10° North 176 203 9,000 1,688 Climbing Houston Center
Wed 07:58:01 AM 29.9583 -95.2617 27° Northeast 189 217 11,600 1,396 Climbing Houston Center
Wed 07:59:01 AM 30.0092 -95.2322 29° Northeast 189 217 12,700 1,300 Climbing Houston Center
Wed 08:00:01 AM 30.0664 -95.1958 26° Northeast 202 232 14,200 1,550 Climbing Houston Center
Wed 08:01:01 AM 30.1217 -95.1642 29° Northeast 214 246 15,800 1,350 Climbing Houston Center
Wed 08:02:01 AM 30.1789 -95.1278 28° Northeast 219 252 16,900 1,100 Climbing Houston Center
Wed 08:03:01 AM 30.2383 -95.0914 31° Northeast 225 259 18,000 1,100 Climbing Houston Center
Wed 08:04:01 AM 30.2978 -95.0500 25° Northeast 231 266 19,100 1,050 Climbing Houston Center
Wed 08:05:01 AM 30.3611 -95.0161 31° Northeast 237 273 20,100 950 Climbing Houston Center
Wed 08:06:01 AM 30.4206 -94.9747 29° Northeast 248 285 21,000 800 Climbing Houston Center
Wed 08:07:01 AM 30.4928 -94.9289 30° Northeast 253 291 21,700 768 Climbing Houston Center
Wed 08:08:45 AM 30.6008 -94.8578 34° Northeast 278 320 23,100 768 Climbing Fort Worth Center
Wed 08:09:45 AM 30.6667 -94.8053 34° Northeast 278 320 23,800 650 Climbing Fort Worth Center
Wed 08:10:45 AM 30.7303 -94.7553 33° Northeast 278 320 24,400 600 Climbing Fort Worth Center
Wed 08:11:45 AM 30.7981 -94.7050 33° Northeast 278 320 25,000 650 Climbing Fort Worth Center
Wed 08:12:45 AM 30.8719 -94.6497 29° Northeast 278 320 25,700 550 Climbing Fort Worth Center
Wed 08:13:45 AM 30.9400 -94.6064 31° Northeast 278 320 26,100 450 Climbing Fort Worth Center
Wed 08:14:45 AM 31.0078 -94.5583 30° Northeast 278 320 26,600 400 Climbing Fort Worth Center
Wed 08:15:45 AM 31.0756 -94.5128 28° Northeast 278 320 26,900 200 Climbing Fort Worth Center
Wed 08:16:45 AM 31.1375 -94.4744 32° Northeast 278 320 27,000 50 Climbing Fort Worth Center
Wed 08:17:45 AM 31.2072 -94.4236 30° Northeast 278 320 27,000  Level Fort Worth Center
Wed 08:18:45 AM 31.2894 -94.3675 31° Northeast 301 346 27,000  Level Fort Worth Center
Wed 08:19:45 AM 31.3611 -94.3164 29° Northeast 301 346 27,000  Level Fort Worth Center
Wed 08:20:45 AM 31.4331 -94.2703 31° Northeast 301 346 27,000  Level Fort Worth Center
Wed 08:21:45 AM 31.5069 -94.2189 31° Northeast 301 346 27,000 50 Level Fort Worth Center
Wed 08:22:45 AM 31.5808 -94.1678 31° Northeast 301 346 27,100 50 Climbing Fort Worth Center
Wed 08:23:45 AM 31.6525 -94.1164 29° Northeast 301 346 27,100  Level Fort Worth Center
Wed 08:24:45 AM 31.7244 -94.0697 30° Northeast 301 346 27,100 -50 Level Fort Worth Center
Wed 08:25:45 AM 31.7961 -94.0208 30° Northeast 301 346 27,000  Descending Fort Worth Center
Wed 08:26:45 AM 31.8678 -93.9717 33° Northeast 301 346 27,100  Climbing Fort Worth Center
Wed 08:27:45 AM 31.9394 -93.9175 28° Northeast 301 346 27,000 -50 Descending Fort Worth Center
Wed 08:28:45 AM 32.0133 -93.8706 32° Northeast 301 346 27,000  Level Fort Worth Center
Wed 08:29:45 AM 32.0828 -93.8189 32° Northeast 296 341 27,000  Level Fort Worth Center
Wed 08:30:45 AM 32.1544 -93.7669 34° Northeast 296 341 27,000  Level Fort Worth Center
Wed 08:31:45 AM 32.2258 -93.7103 29° Northeast 296 341 27,000  Level Fort Worth Center
Wed 08:32:45 AM 32.2953 -93.6656 30° Northeast 291 335 27,000  Level Fort Worth Center
Wed 08:33:45 AM 32.3692 -93.6158 32° Northeast 291 335 27,000  Level Fort Worth Center
Wed 08:34:45 AM 32.4406 -93.5636 31° Northeast 291 335 27,000  Level Fort Worth Center
Wed 08:35:58 AM 32.5264 -93.5033 31° Northeast 291 335 27,000  Level Fort Worth Center
Wed 08:36:57 AM 32.5958 -93.4533 31° Northeast 291 335 27,000 50 Level Fort Worth Center
Wed 08:37:58 AM 32.6692 -93.4008 30° Northeast 291 335 27,100 50 Climbing Fort Worth Center
Wed 08:38:57 AM 32.7428 -93.3506 31° Northeast 296 341 27,100 -50 Level Fort Worth Center
Wed 08:39:57 AM 32.8161 -93.2978 31° Northeast 296 341 27,000 -50 Descending Fort Worth Center
Wed 08:40:58 AM 32.8875 -93.2475 30° Northeast 296 341 27,000  Level Fort Worth Center
Wed 08:41:58 AM 32.9569 -93.1997 33° Northeast 291 335 27,000  Level Fort Worth Center
Wed 08:42:58 AM 33.0242 -93.1469 29° Northeast 286 329 27,000  Level Fort Worth Center
Wed 08:43:58 AM 33.0956 -93.0992 33° Northeast 286 329 27,000  Level Fort Worth Center
Wed 08:44:58 AM 33.1647 -93.0461 30° Northeast 286 329 27,000  Level Fort Worth Center
Wed 08:45:57 AM 33.2381 -92.9953 32° Northeast 286 329 27,000  Level Fort Worth Center
Wed 08:46:58 AM 33.3092 -92.9419 30° Northeast 286 329 27,000  Level Fort Worth Center
Wed 08:48:45 AM 33.4342 -92.8539 30° Northeast 293 337 27,000  Level Memphis Center
Wed 08:49:45 AM 33.5061 -92.8036 31° Northeast 293 337 27,000  Level Memphis Center
Wed 08:50:45 AM 33.5781 -92.7508 32° Northeast 299 344 27,000  Level Memphis Center
Wed 08:51:45 AM 33.6500 -92.6978 31° Northeast 299 344 27,000  Level Memphis Center
Wed 08:52:45 AM 33.7239 -92.6450 31° Northeast 299 344 27,000  Level Memphis Center
Wed 08:53:45 AM 33.7958 -92.5919 31° Northeast 299 344 27,000  Level Memphis Center
Wed 08:54:45 AM 33.8719 -92.5364 33° Northeast 299 344 27,000  Level Memphis Center
Wed 08:55:45 AM 33.9419 -92.4806 27° Northeast 299 344 27,000  Level Memphis Center
Wed 08:56:45 AM 34.0178 -92.4347 35° Northeast 299 344 27,000  Level Memphis Center
Wed 08:57:45 AM 34.0875 -92.3761 31° Northeast 299 344 27,000  Level Memphis Center
Wed 08:58:45 AM 34.1614 -92.3225 32° Northeast 299 344 27,000  Level Memphis Center
Wed 08:59:45 AM 34.2375 -92.2642 29° Northeast 304 350 27,000  Level Memphis Center
Wed 09:00:45 AM 34.3092 -92.2153 32° Northeast 304 350 27,000  Level Memphis Center
Wed 09:01:45 AM 34.3831 -92.1592 32° Northeast 304 350 27,000  Level Memphis Center
Wed 09:02:45 AM 34.4569 -92.1028 32° Northeast 304 350 27,000  Level Memphis Center
Wed 09:03:45 AM 34.5308 -92.0464 30° Northeast 304 350 27,000  Level Memphis Center
Wed 09:04:45 AM 34.6044 -91.9947 33° Northeast 299 344 27,000  Level Memphis Center
Wed 09:05:45 AM 34.6783 -91.9356 30° Northeast 299 344 27,000  Level Memphis Center
Wed 09:06:45 AM 34.7539 -91.8814 32° Northeast 304 350 27,000  Level Memphis Center
Wed 09:07:45 AM 34.8297 -91.8244 33° Northeast 304 350 27,000  Level Memphis Center
Wed 09:08:45 AM 34.9036 -91.7650 32° Northeast 304 350 27,000  Level Memphis Center
Wed 09:09:45 AM 34.9792 -91.7078 31° Northeast 304 350 27,000  Level Memphis Center
Wed 09:10:45 AM 35.0508 -91.6558 32° Northeast 304 350 27,000  Level Memphis Center
Wed 09:11:45 AM 35.1264 -91.5986 33° Northeast 304 350 27,000  Level Memphis Center
Wed 09:12:45 AM 35.2000 -91.5411 32° Northeast 304 350 27,000  Level Memphis Center
Wed 09:13:45 AM 35.2736 -91.4839 30° Northeast 304 350 27,000  Level Memphis Center
Wed 09:14:45 AM 35.3511 -91.4289 33° Northeast 304 350 27,000  Level Memphis Center
Wed 09:15:45 AM 35.4267 -91.3686 31° Northeast 309 356 27,000  Level Memphis Center
Wed 09:16:45 AM 35.5064 -91.3108 33° Northeast 319 367 27,000  Level Memphis Center
Wed 09:17:45 AM 35.5714 -91.2581 31° Northeast 319 367 27,000  Level Memphis Center
Wed 09:18:45 AM 35.6492 -91.2000 34° Northeast 319 367 27,000  Level Memphis Center
Wed 09:19:45 AM 35.7289 -91.1344 31° Northeast 319 367 27,000  Level Memphis Center
Wed 09:20:45 AM 35.8064 -91.0764 33° Northeast 319 367 27,000  Level Memphis Center
Wed 09:21:45 AM 35.8836 -91.0156 32° Northeast 324 373 27,000  Level Memphis Center
Wed 09:22:45 AM 35.9592 -90.9572 33° Northeast 324 373 27,000  Level Memphis Center
Wed 09:23:45 AM 36.0367 -90.8961 32° Northeast 324 373 27,000  Level Memphis Center
Wed 09:24:45 AM 36.1161 -90.8347 33° Northeast 330 380 27,000  Level Memphis Center
Wed 09:25:45 AM 36.1933 -90.7736 32° Northeast 325 374 27,000  Level Memphis Center
Wed 09:26:45 AM 36.2728 -90.7122 33° Northeast 325 374 27,000  Level Memphis Center
Wed 09:27:45 AM 36.3522 -90.6481 31° Northeast 325 374 27,000  Level Memphis Center
Wed 09:28:45 AM 36.4336 -90.5864 33° Northeast 331 381 27,000  Level Memphis Center
Wed 09:29:45 AM 36.5025 -90.5300 31° Northeast 331 381 27,000  Level Memphis Center
Wed 09:30:45 AM 36.5839 -90.4681 34° Northeast 331 381 27,000  Level Memphis Center
Wed 09:31:45 AM 36.6653 -90.4008 31° Northeast 336 387 27,000  Level Memphis Center
Wed 09:32:45 AM 36.7444 -90.3414 34° Northeast 336 387 27,000  Level Memphis Center
Wed 09:33:45 AM 36.8256 -90.2739 32° Northeast 342 394 27,000  Level Memphis Center
Wed 09:35:23 AM 36.9661 -90.1622 34° Northeast 356 410 27,000  Level Kansas City Center
Wed 09:36:23 AM 37.0492 -90.0925 32° Northeast 356 410 27,000  Level Kansas City Center
Wed 09:37:23 AM 37.1281 -90.0306 32° Northeast 351 404 27,000  Level Kansas City Center
Wed 09:38:23 AM 37.2011 -89.9742 35° Northeast 346 398 27,000  Level Kansas City Center
Wed 09:39:23 AM 37.2819 -89.9039 31° Northeast 346 398 27,000  Level Kansas City Center
Wed 09:40:23 AM 37.3628 -89.8417 34° Northeast 346 398 27,000  Level Kansas City Center
Wed 09:41:23 AM 37.4397 -89.7767 31° Northeast 340 391 27,000  Level Kansas City Center
Wed 09:42:23 AM 37.5228 -89.7139 35° Northeast 340 391 27,000  Level Kansas City Center
Wed 09:43:23 AM 37.6033 -89.6433 32° Northeast 340 391 27,000  Level Kansas City Center
Wed 09:44:23 AM 37.6842 -89.5803 33° Northeast 335 386 27,000  Level Kansas City Center
Wed 09:45:23 AM 37.7647 -89.5144 36° Northeast 335 386 27,000  Level Kansas City Center
Wed 09:46:23 AM 37.8511 -89.4350 33° Northeast 340 391 27,000  Level Kansas City Center
Wed 09:47:23 AM 37.9236 -89.3750 32° Northeast 339 390 27,000  Level Kansas City Center
Wed 09:48:23 AM 38.0144 -89.3028 33° Northeast 339 390 27,000  Level Kansas City Center
Wed 09:49:23 AM 38.0869 -89.2422 34° Northeast 339 390 27,000  Level Kansas City Center
Wed 09:50:23 AM 38.1733 -89.1675 33° Northeast 344 396 27,000  Level Kansas City Center
Wed 09:51:23 AM 38.2456 -89.1067 34° Northeast 338 389 27,000  Level Kansas City Center
Wed 09:52:23 AM 38.3339 -89.0314 33° Northeast 343 395 27,000  Level Kansas City Center
Wed 09:53:23 AM 38.4061 -88.9706 33° Northeast 343 395 27,000  Level Kansas City Center
Wed 09:54:23 AM 38.4925 -88.8978 34° Northeast 343 395 27,000  Level Kansas City Center
Wed 09:55:23 AM 38.5625 -88.8367 32° Northeast 338 389 27,000  Level Kansas City Center
Wed 09:56:23 AM 38.6550 -88.7628 35° Northeast 338 389 27,000  Level Kansas City Center
Wed 09:57:23 AM 38.7231 -88.7017 33° Northeast 338 389 27,000  Level Kansas City Center
Wed 09:58:23 AM 38.8031 -88.6342 34° Northeast 338 389 27,000  Level Kansas City Center
Wed 09:59:23 AM 38.8811 -88.5664 34° Northeast 338 389 27,000  Level Kansas City Center
Wed 10:01:40 AM 39.0675 -88.4036 33° Northeast 356 410 27,000  Level Indianapolis Center
Wed 10:02:40 AM 39.1472 -88.3369 34° Northeast 349 402 27,000  Level Indianapolis Center
Wed 10:03:40 AM 39.2253 -88.2697 34° Northeast 343 395 27,000  Level Indianapolis Center
Wed 10:04:40 AM 39.3050 -88.1997 38° Northeast 338 389 27,000  Level Indianapolis Center
Wed 10:05:40 AM 39.3658 -88.1392 32° Northeast 331 381 27,000  Level Indianapolis Center
Wed 10:06:40 AM 39.4478 -88.0719 34° Northeast 326 375 27,000  Level Indianapolis Center
Wed 10:07:40 AM 39.5211 -88.0067 35° Northeast 326 375 27,000  Level Indianapolis Center
Wed 10:08:40 AM 39.6008 -87.9336 33° Northeast 321 369 27,000  Level Indianapolis Center
Wed 10:10:20 AM 39.7283 -87.8278 35° Northeast 326 375 27,000  Level Chicago Center
Wed 10:11:20 AM 39.8025 -87.7611 33° Northeast 321 369 27,000  Level Chicago Center
Wed 10:12:20 AM 39.8744 -87.7000 35° Northeast 321 369 27,000  Level Chicago Center
Wed 10:13:20 AM 39.9486 -87.6331 32° Northeast 322 371 27,000  Level Chicago Center
Wed 10:14:20 AM 40.0228 -87.5717 36° Northeast 322 371 27,000  Level Chicago Center
Wed 10:15:20 AM 40.0906 -87.5072 33° Northeast 314 361 27,000  Level Chicago Center
Wed 10:16:20 AM 40.1664 -87.4428 37° Northeast 319 367 27,000 -400 Level Chicago Center
Wed 10:17:20 AM 40.2322 -87.3783 32° Northeast 319 367 26,200 -1,050 Descending Chicago Center
Wed 10:18:20 AM 40.3081 -87.3161 35° Northeast 328 377 24,900 -1,150 Descending Chicago Center
Wed 10:19:20 AM 40.3800 -87.2511 35° Northeast 310 357 23,900 -1,150 Descending Chicago Center
Wed 10:20:20 AM 40.4497 -87.1864 36° Northeast 298 343 22,600 -1,350 Descending Chicago Center
Wed 10:21:20 AM 40.5192 -87.1211 28° Northeast 298 343 21,200 -1,450 Descending Chicago Center
Wed 10:22:20 AM 40.5892 -87.0722 16° North 291 335 19,700 -1,500 Descending Chicago Center
Wed 10:23:20 AM 40.6739 -87.0394 21° North 285 328 18,200 -1,300 Descending Chicago Center
Wed 10:24:20 AM 40.7483 -87.0011 20° North 291 335 17,100 -1,150 Descending Chicago Center
Wed 10:25:20 AM 40.8225 -86.9656 17° North 291 335 15,900 -1,150 Descending Chicago Center
Wed 10:26:20 AM 40.8992 -86.9353 28° Northeast 291 335 14,800 -1,100 Descending Chicago Center
Wed 10:27:20 AM 40.9689 -86.8858 42° Northeast 280 322 13,700 -1,050 Descending Chicago Center
Wed 10:28:20 AM 41.0297 -86.8119 40° Northeast 281 323 12,700 -800 Descending Chicago Center
Wed 10:29:20 AM 41.0889 -86.7464 43° Northeast 281 323 12,100 -650 Descending Chicago Center
Wed 10:30:20 AM 41.1456 -86.6753 37° Northeast 281 323 11,400 -750 Descending Chicago Center
Wed 10:31:20 AM 41.2086 -86.6119 44° Northeast 281 323 10,600 -950 Descending Chicago Center
Wed 10:32:20 AM 41.2633 -86.5406 38° Northeast 281 323 9,500 -1,500 Descending Chicago Center
Wed 10:33:20 AM 41.3222 -86.4800 43° Northeast 276 318 7,600 -1,200 Descending Chicago Center
Wed 10:34:20 AM 41.3667 -86.4253 41° Northeast 249 287 7,100 -250 Descending Chicago Center
Wed 10:35:20 AM 41.4172 -86.3675 48° Northeast 238 274 7,100 -200 Level Chicago Center
Wed 10:36:20 AM 41.4694 -86.2906 65° Northeast 248 285 6,700 -800 Descending Chicago Center
Wed 10:37:20 AM 41.5006 -86.2031 35° Northeast 248 285 5,500 -1,200 Descending Chicago Center
Wed 10:44:32 AM 41.7167 -86.0000 319° Northwest  Level FlightAware Approximate
Wed 10:45:32 AM 41.7788 -86.0732 139° Southeast  Level Estimated
Wed 10:46:32 AM 41.7167 -86.0000 319° Northwest  Level FlightAware Approximate
Wed 10:47:32 AM 41.7788 -86.0732 139° Southeast  Level Estimated
Wed 10:48:32 AM 41.7167 -86.0000 319° Northwest  Level FlightAware Approximate
Wed 10:49:32 AM 41.7788 -86.0732 319° Northwest  Level Estimated

Login

Don't have an account? Register now (free) for customized features, flight alerts, and more!